Rayville, Louisiana
Current Conditions -  °F | °C
As of 12:53 PM on Saturday 25 Oct 2014 (Local Time) from KMLU Reporting Station
Clear Clear  
Wind Chill: 78°   Ceiling: Unl
Heat Index: 79°   Visibility: 10mi
Dew Point: 57°   Wind: 6mph
Humidity: 48%   Direction: 250°WSW
Pressure: 30.15"   Gusts: NA
Location:  32.48°N, 91.75°W
Report Text: KMLU 251753Z 25005KT 10SM CLR 26/14 A3015 RMK AO2 SLP208 T02560139 10256 20089 58014
Loading
Personal Weather Stations






























Interactive Weather Map New forecast layout! Learn more

10-Day Weather Forecast

Advertisements
Track Severe Weather on mobile